Time;durP1;ratioP1;P1;durP2;ratioP2;P2;SDS_P1;SDS_P2;PMS_P1;PMS_P2;Temp;Humidity;BMP_temperature;BMP_pressure;BME280_temperature;BME280_humidity;BME280_pressure;Samples;Min_cycle;Max_cycle;Signal;HPM_P1;HPM_P2
2022/10/24 00:00:53;;;;;;;0.20;0.20;;;;;;;;;;5036574;28;20068;-73
2022/10/24 00:03:19;;;;;;;0.20;0.20;;;;;;;;;;5054440;28;20017;-73
2022/10/24 00:05:45;;;;;;;0.20;0.20;;;;;;;;;;5053036;28;20076;-72
2022/10/24 00:08:11;;;;;;;0.10;0.10;;;;;;;;;;5054128;28;20017;-72
2022/10/24 00:10:40;;;;;;;0.20;0.20;;;;;;;;;;5022018;28;20040;-73
2022/10/24 00:13:06;;;;;;;0.20;0.20;;;;;;;;;;5016499;28;20029;-73
2022/10/24 00:15:32;;;;;;;0.93;0.93;;;;;;;;;;5042655;28;20051;-73
2022/10/24 00:17:57;;;;;;;0.57;0.57;;;;;;;;;;5054341;28;20025;-73
2022/10/24 00:20:23;;;;;;;2.13;1.95;;;;;;;;;;5052603;28;20029;-73
2022/10/24 00:22:48;;;;;;;1.25;1.25;;;;;;;;;;5054029;28;20021;-73
2022/10/24 00:25:13;;;;;;;0.20;0.20;;;;;;;;;;5052740;28;20052;-73
2022/10/24 00:27:39;;;;;;;0.30;0.30;;;;;;;;;;5053556;28;20028;-73
2022/10/24 00:30:05;;;;;;;1.52;1.50;;;;;;;;;;5053320;28;20017;-73
2022/10/24 00:32:30;;;;;;;0.20;0.20;;;;;;;;;;5036201;28;20048;-73
2022/10/24 00:34:56;;;;;;;0.10;0.10;;;;;;;;;;5054124;28;20086;-73
2022/10/24 00:37:21;;;;;;;1.15;1.05;;;;;;;;;;5053780;28;20051;-73
2022/10/24 00:39:46;;;;;;;0.20;0.20;;;;;;;;;;5053655;28;20037;-73
2022/10/24 00:42:12;;;;;;;0.20;0.20;;;;;;;;;;5052647;28;20076;-73
2022/10/24 00:44:38;;;;;;;0.20;0.20;;;;;;;;;;5036034;28;20033;-73
2022/10/24 00:47:06;;;;;;;0.15;0.15;;;;;;;;;;5053864;28;20059;-73
2022/10/24 00:49:42;;;;;;;0.20;0.20;;;;;;;;;;5035312;28;20037;-73
2022/10/24 00:52:08;;;;;;;0.15;0.15;;;;;;;;;;5053310;28;20392;-73
2022/10/24 00:54:34;;;;;;;0.20;0.20;;;;;;;;;;5053456;28;20021;-73
2022/10/24 00:57:03;;;;;;;0.20;0.20;;;;;;;;;;5053263;28;20028;-73
2022/10/24 00:59:29;;;;;;;0.20;0.20;;;;;;;;;;5053916;28;20028;-73
2022/10/24 01:01:55;;;;;;;0.90;0.90;;;;;;;;;;5053413;28;20475;-73
2022/10/24 01:04:20;;;;;;;0.10;0.10;;;;;;;;;;5053246;28;20025;-73
2022/10/24 01:06:57;;;;;;;0.10;0.10;;;;;;;;;;5053335;28;20025;-73
2022/10/24 01:09:40;;;;;;;0.10;0.10;;;;;;;;;;5052356;28;20028;-73
2022/10/24 01:12:21;;;;;;;0.60;0.60;;;;;;;;;;5052825;28;20428;-73
2022/10/24 01:14:51;;;;;;;0.20;0.20;;;;;;;;;;5053354;28;20028;-72
2022/10/24 01:17:26;;;;;;;0.20;0.20;;;;;;;;;;5053106;28;20036;-72
2022/10/24 01:19:54;;;;;;;0.20;0.20;;;;;;;;;;5019168;28;20099;-72
2022/10/24 01:22:21;;;;;;;0.20;0.20;;;;;;;;;;5052020;28;20032;-72
2022/10/24 01:25:10;;;;;;;0.10;0.10;;;;;;;;;;5035376;28;20075;-72
2022/10/24 01:27:35;;;;;;;0.90;0.83;;;;;;;;;;5042521;28;20476;-72
2022/10/24 01:30:04;;;;;;;0.20;0.20;;;;;;;;;;5052860;28;20343;-72
2022/10/24 01:32:33;;;;;;;0.17;0.17;;;;;;;;;;5035353;28;20392;-72
2022/10/24 01:35:01;;;;;;;0.17;0.17;;;;;;;;;;5053214;28;20029;-72
2022/10/24 01:37:45;;;;;;;0.20;0.20;;;;;;;;;;5052027;28;20087;-73
2022/10/24 01:40:15;;;;;;;0.28;0.28;;;;;;;;;;5033023;28;20031;-72
2022/10/24 01:42:42;;;;;;;0.20;0.20;;;;;;;;;;5032932;28;20053;-71
2022/10/24 01:45:10;;;;;;;0.10;0.10;;;;;;;;;;5033226;28;20091;-72
2022/10/24 01:47:48;;;;;;;0.20;0.20;;;;;;;;;;5032878;28;20079;-72
2022/10/24 01:50:15;;;;;;;0.10;0.10;;;;;;;;;;5050591;28;20552;-72
2022/10/24 01:52:43;;;;;;;0.20;0.20;;;;;;;;;;5052869;28;20464;-73
2022/10/24 01:55:08;;;;;;;0.20;0.20;;;;;;;;;;5052177;28;20039;-72
2022/10/24 01:57:34;;;;;;;0.28;0.28;;;;;;;;;;5053210;28;20055;-72
2022/10/24 01:59:59;;;;;;;0.10;0.10;;;;;;;;;;5052987;28;20036;-73
2022/10/24 02:02:28;;;;;;;0.13;0.13;;;;;;;;;;5056370;28;20029;-72
2022/10/24 02:05:05;;;;;;;0.20;0.20;;;;;;;;;;5057174;28;20025;-72
2022/10/24 02:07:32;;;;;;;0.20;0.20;;;;;;;;;;5056622;28;20041;-72
2022/10/24 02:10:07;;;;;;;0.17;0.17;;;;;;;;;;5038090;28;20017;-72
2022/10/24 02:12:36;;;;;;;0.57;0.57;;;;;;;;;;5056525;28;20054;-72
2022/10/24 02:15:03;;;;;;;0.50;0.50;;;;;;;;;;5056523;28;20021;-73
2022/10/24 02:17:29;;;;;;;1.02;1.02;;;;;;;;;;5056494;28;20035;-73
2022/10/24 02:19:55;;;;;;;0.20;0.20;;;;;;;;;;5055538;28;20025;-74
2022/10/24 02:22:37;;;;;;;0.20;0.20;;;;;;;;;;5056180;28;20056;-74
2022/10/24 02:25:11;;;;;;;0.10;0.10;;;;;;;;;;5056546;28;20044;-74
2022/10/24 02:27:42;;;;;;;0.25;0.25;;;;;;;;;;5038626;28;20126;-73
2022/10/24 02:30:12;;;;;;;0.17;0.17;;;;;;;;;;5056334;28;20040;-73
2022/10/24 02:32:39;;;;;;;0.10;0.10;;;;;;;;;;5056025;28;20033;-72
2022/10/24 02:35:05;;;;;;;0.13;0.13;;;;;;;;;;5055164;28;20021;-72
2022/10/24 02:37:32;;;;;;;0.70;0.70;;;;;;;;;;5053990;28;20032;-73
2022/10/24 02:39:59;;;;;;;0.20;0.20;;;;;;;;;;5056042;28;20029;-73
2022/10/24 02:42:27;;;;;;;0.20;0.20;;;;;;;;;;5055323;28;20055;-73
2022/10/24 02:44:52;;;;;;;0.30;0.30;;;;;;;;;;5055617;28;20068;-73
2022/10/24 02:47:19;;;;;;;0.10;0.10;;;;;;;;;;5037885;28;20061;-72
2022/10/24 02:49:45;;;;;;;0.22;0.22;;;;;;;;;;5037709;28;20086;-73
2022/10/24 02:52:11;;;;;;;0.20;0.20;;;;;;;;;;5055358;28;20053;-73
2022/10/24 02:54:36;;;;;;;0.17;0.17;;;;;;;;;;5055876;28;20059;-73
2022/10/24 02:57:02;;;;;;;0.20;0.20;;;;;;;;;;5055695;28;20031;-73
2022/10/24 02:59:28;;;;;;;0.10;0.10;;;;;;;;;;5055537;28;20060;-72
2022/10/24 03:01:54;;;;;;;0.55;0.55;;;;;;;;;;5054505;28;20052;-73
2022/10/24 03:04:19;;;;;;;0.93;0.88;;;;;;;;;;5014333;28;20046;-74
2022/10/24 03:06:45;;;;;;;0.55;0.55;;;;;;;;;;5031837;28;20017;-73
2022/10/24 03:09:10;;;;;;;0.98;0.98;;;;;;;;;;5031522;28;20389;-73
2022/10/24 03:11:36;;;;;;;1.98;1.20;;;;;;;;;;5044844;28;20040;-73
2022/10/24 03:14:01;;;;;;;0.75;0.75;;;;;;;;;;5052051;28;20040;-74
2022/10/24 03:16:27;;;;;;;0.20;0.20;;;;;;;;;;5051515;28;20029;-74
2022/10/24 03:18:53;;;;;;;0.13;0.13;;;;;;;;;;5051524;28;20735;-73
2022/10/24 03:21:18;;;;;;;0.10;0.10;;;;;;;;;;5051399;28;20166;-73
2022/10/24 03:23:44;;;;;;;0.20;0.20;;;;;;;;;;5051558;28;20036;-73
2022/10/24 03:26:09;;;;;;;1.00;1.00;;;;;;;;;;5051385;28;20033;-73
2022/10/24 03:28:34;;;;;;;0.30;0.30;;;;;;;;;;5051546;28;20036;-73
2022/10/24 03:31:00;;;;;;;0.20;0.20;;;;;;;;;;5051491;28;20104;-73
2022/10/24 03:33:25;;;;;;;0.57;0.57;;;;;;;;;;5033066;28;20037;-73
2022/10/24 03:35:52;;;;;;;0.10;0.10;;;;;;;;;;5033117;28;20025;-74
2022/10/24 03:38:18;;;;;;;0.20;0.20;;;;;;;;;;5050184;28;20103;-74
2022/10/24 03:40:43;;;;;;;0.20;0.20;;;;;;;;;;5051457;28;20171;-74
2022/10/24 03:43:08;;;;;;;0.25;0.25;;;;;;;;;;5050986;28;20052;-74
2022/10/24 03:45:34;;;;;;;0.10;0.10;;;;;;;;;;5050912;28;20032;-72
2022/10/24 03:48:06;;;;;;;0.20;0.20;;;;;;;;;;5050713;28;20048;-74
2022/10/24 03:50:32;;;;;;;0.20;0.20;;;;;;;;;;5015209;28;20025;-74
2022/10/24 03:52:58;;;;;;;0.20;0.20;;;;;;;;;;5033077;28;20440;-73
2022/10/24 03:55:23;;;;;;;0.30;0.30;;;;;;;;;;5051041;28;20032;-72
2022/10/24 03:57:48;;;;;;;0.10;0.10;;;;;;;;;;5050836;28;20495;-73
2022/10/24 04:00:14;;;;;;;0.10;0.10;;;;;;;;;;5049909;28;20463;-74
2022/10/24 04:02:40;;;;;;;0.10;0.10;;;;;;;;;;5050418;28;20108;-72
2022/10/24 04:05:05;;;;;;;0.20;0.20;;;;;;;;;;5050464;28;20040;-73
2022/10/24 04:07:31;;;;;;;0.10;0.10;;;;;;;;;;5032088;28;20029;-75
2022/10/24 04:09:56;;;;;;;0.20;0.20;;;;;;;;;;5050806;28;20091;-73
2022/10/24 04:12:22;;;;;;;0.28;0.28;;;;;;;;;;5050687;28;20063;-72
2022/10/24 04:14:48;;;;;;;0.10;0.10;;;;;;;;;;5050693;28;20064;-74
2022/10/24 04:17:14;;;;;;;0.10;0.10;;;;;;;;;;5050613;28;20064;-74
2022/10/24 04:19:39;;;;;;;0.10;0.10;;;;;;;;;;5050166;28;20078;-74
2022/10/24 04:22:05;;;;;;;0.10;0.10;;;;;;;;;;5050374;28;20035;-74
2022/10/24 04:24:30;;;;;;;0.10;0.10;;;;;;;;;;5048308;28;20044;-74
2022/10/24 04:26:55;;;;;;;0.10;0.10;;;;;;;;;;5050230;28;20025;-74
2022/10/24 04:29:21;;;;;;;0.20;0.20;;;;;;;;;;5050070;28;20029;-75
2022/10/24 04:31:46;;;;;;;0.10;0.10;;;;;;;;;;5049459;28;20011;-73
2022/10/24 04:34:12;;;;;;;0.20;0.20;;;;;;;;;;5048559;28;20379;-73
2022/10/24 04:36:37;;;;;;;0.10;0.10;;;;;;;;;;5040179;28;20064;-74
2022/10/24 04:39:03;;;;;;;0.10;0.10;;;;;;;;;;5047688;28;20492;-73
2022/10/24 04:41:28;;;;;;;0.10;0.10;;;;;;;;;;5050064;28;20029;-72
2022/10/24 04:43:54;;;;;;;0.20;0.20;;;;;;;;;;5049547;28;20049;-73
2022/10/24 04:46:19;;;;;;;0.10;0.10;;;;;;;;;;5047345;28;20047;-73
2022/10/24 04:48:45;;;;;;;0.10;0.10;;;;;;;;;;5030654;28;20167;-71
2022/10/24 04:51:10;;;;;;;0.13;0.13;;;;;;;;;;5049139;28;20037;-71
2022/10/24 04:53:36;;;;;;;0.10;0.10;;;;;;;;;;5047454;28;20052;-73
2022/10/24 04:56:01;;;;;;;0.10;0.10;;;;;;;;;;5048537;28;20047;-73
2022/10/24 04:58:27;;;;;;;0.13;0.13;;;;;;;;;;5029475;28;20032;-74
2022/10/24 05:00:52;;;;;;;0.10;0.10;;;;;;;;;;5035764;28;20419;-74
2022/10/24 05:03:18;;;;;;;0.32;0.32;;;;;;;;;;5049057;28;20029;-73
2022/10/24 05:05:44;;;;;;;0.17;0.17;;;;;;;;;;5049661;28;20140;-74
2022/10/24 05:08:09;;;;;;;0.25;0.25;;;;;;;;;;5045491;28;20029;-72
2022/10/24 05:10:35;;;;;;;0.40;0.40;;;;;;;;;;5045819;28;20095;-73
2022/10/24 05:13:00;;;;;;;0.30;0.30;;;;;;;;;;5042111;28;20104;-72
2022/10/24 05:15:28;;;;;;;0.40;0.40;;;;;;;;;;5037317;28;20113;-73
2022/10/24 05:17:54;;;;;;;0.10;0.10;;;;;;;;;;5041947;28;20477;-72
2022/10/24 05:20:20;;;;;;;0.13;0.13;;;;;;;;;;5040343;28;20043;-72
2022/10/24 05:22:45;;;;;;;0.20;0.20;;;;;;;;;;5036734;28;20040;-73
2022/10/24 05:25:11;;;;;;;0.10;0.10;;;;;;;;;;5029887;28;20036;-74
2022/10/24 05:27:36;;;;;;;0.10;0.10;;;;;;;;;;5043546;28;20035;-72
2022/10/24 05:30:02;;;;;;;0.10;0.10;;;;;;;;;;5048884;28;20036;-72
2022/10/24 05:32:28;;;;;;;0.15;0.15;;;;;;;;;;5049285;28;20123;-72
2022/10/24 05:34:53;;;;;;;0.20;0.20;;;;;;;;;;5042621;28;20120;-71
2022/10/24 05:37:19;;;;;;;0.20;0.20;;;;;;;;;;5034448;28;20064;-73
2022/10/24 05:39:44;;;;;;;0.10;0.10;;;;;;;;;;5031948;28;20029;-72
2022/10/24 05:42:10;;;;;;;0.20;0.20;;;;;;;;;;5032977;28;20514;-72
2022/10/24 05:44:35;;;;;;;0.20;0.20;;;;;;;;;;5036751;28;20033;-72
2022/10/24 05:47:01;;;;;;;0.10;0.10;;;;;;;;;;5051908;28;20055;-72
2022/10/24 05:49:26;;;;;;;0.10;0.10;;;;;;;;;;5052843;28;20035;-72
2022/10/24 05:51:52;;;;;;;0.10;0.10;;;;;;;;;;5052807;28;20044;-72
2022/10/24 05:54:17;;;;;;;0.20;0.20;;;;;;;;;;5052434;28;20025;-73
2022/10/24 05:56:43;;;;;;;0.57;0.52;;;;;;;;;;5050949;28;20190;-71
2022/10/24 05:59:08;;;;;;;0.10;0.10;;;;;;;;;;5052593;28;20567;-74
2022/10/24 06:01:33;;;;;;;0.10;0.10;;;;;;;;;;5050973;28;20108;-74
2022/10/24 06:03:59;;;;;;;0.40;0.40;;;;;;;;;;5051182;28;20025;-70
2022/10/24 06:06:24;;;;;;;0.10;0.10;;;;;;;;;;5041652;28;20365;-72
2022/10/24 06:08:50;;;;;;;0.10;0.10;;;;;;;;;;5033115;28;20037;-72
2022/10/24 06:11:16;;;;;;;0.80;0.80;;;;;;;;;;5032905;28;20025;-72
2022/10/24 06:13:41;;;;;;;0.75;0.75;;;;;;;;;;5032806;28;20020;-71
2022/10/24 06:16:08;;;;;;;0.13;0.13;;;;;;;;;;5032797;28;20033;-73
2022/10/24 06:18:33;;;;;;;0.10;0.10;;;;;;;;;;5032485;28;20022;-72
2022/10/24 06:20:59;;;;;;;0.22;0.22;;;;;;;;;;5031923;28;20053;-71
2022/10/24 06:23:24;;;;;;;0.10;0.10;;;;;;;;;;5032620;28;20510;-71
2022/10/24 06:25:50;;;;;;;0.73;0.73;;;;;;;;;;5032367;28;20048;-72
2022/10/24 06:28:15;;;;;;;0.10;0.10;;;;;;;;;;5032876;28;20060;-73
2022/10/24 06:30:41;;;;;;;0.20;0.20;;;;;;;;;;5038183;28;20095;-71
2022/10/24 06:33:07;;;;;;;0.20;0.20;;;;;;;;;;5048697;28;20056;-72
2022/10/24 06:35:32;;;;;;;1.30;0.73;;;;;;;;;;5052638;28;20024;-71
2022/10/24 06:37:57;;;;;;;0.10;0.10;;;;;;;;;;5052036;28;20025;-71
2022/10/24 06:40:23;;;;;;;0.13;0.13;;;;;;;;;;5052093;28;20492;-70
2022/10/24 06:42:48;;;;;;;0.20;0.20;;;;;;;;;;5052092;28;20322;-73
2022/10/24 06:45:14;;;;;;;0.20;0.20;;;;;;;;;;5017996;28;20097;-71
2022/10/24 06:47:40;;;;;;;0.20;0.20;;;;;;;;;;5051796;28;20055;-72
2022/10/24 06:50:05;;;;;;;1.13;1.13;;;;;;;;;;5033433;28;20047;-71
2022/10/24 06:52:31;;;;;;;0.13;0.13;;;;;;;;;;5051513;28;20024;-72
2022/10/24 06:54:56;;;;;;;0.15;0.15;;;;;;;;;;5051849;28;20033;-72
2022/10/24 06:57:22;;;;;;;0.32;0.32;;;;;;;;;;5051963;28;20024;-73
2022/10/24 06:59:47;;;;;;;4.07;3.72;;;;;;;;;;5051784;28;20033;-74
2022/10/24 07:02:13;;;;;;;0.50;0.50;;;;;;;;;;5051777;28;20477;-73
2022/10/24 07:04:39;;;;;;;1.08;1.05;;;;;;;;;;5051463;28;20041;-74
2022/10/24 07:07:04;;;;;;;0.43;0.43;;;;;;;;;;5051773;28;20029;-73
2022/10/24 07:09:29;;;;;;;0.63;0.63;;;;;;;;;;5052036;28;20423;-72
2022/10/24 07:11:55;;;;;;;0.40;0.40;;;;;;;;;;5051287;28;20373;-73
2022/10/24 07:14:21;;;;;;;0.20;0.20;;;;;;;;;;5051322;28;20072;-71
2022/10/24 07:16:46;;;;;;;3.42;3.22;;;;;;;;;;5051691;28;20017;-71
2022/10/24 07:19:12;;;;;;;0.40;0.40;;;;;;;;;;5050958;28;20036;-72
2022/10/24 07:21:38;;;;;;;0.10;0.10;;;;;;;;;;5044257;28;20026;-72
2022/10/24 07:24:04;;;;;;;2.70;2.60;;;;;;;;;;5043623;28;20163;-72
2022/10/24 07:26:30;;;;;;;0.20;0.20;;;;;;;;;;5050995;28;20527;-72
2022/10/24 07:28:59;;;;;;;0.20;0.20;;;;;;;;;;5050537;28;20124;-73
2022/10/24 07:31:25;;;;;;;0.20;0.20;;;;;;;;;;5051289;28;20101;-71
2022/10/24 07:33:51;;;;;;;0.47;0.47;;;;;;;;;;5044726;28;20025;-72
2022/10/24 07:36:20;;;;;;;9.05;8.40;;;;;;;;;;5047970;28;20021;-73
2022/10/24 07:38:47;;;;;;;0.20;0.20;;;;;;;;;;5051132;28;20545;-72
2022/10/24 07:41:12;;;;;;;0.20;0.20;;;;;;;;;;5033456;28;20033;-72
2022/10/24 07:43:38;;;;;;;0.30;0.30;;;;;;;;;;5046450;28;20136;-72
2022/10/24 07:46:07;;;;;;;0.30;0.30;;;;;;;;;;5040400;28;20592;-72
2022/10/24 07:48:32;;;;;;;0.20;0.20;;;;;;;;;;5040703;28;20604;-72
2022/10/24 07:50:58;;;;;;;0.20;0.20;;;;;;;;;;5047956;28;20457;-75
2022/10/24 07:53:26;;;;;;;0.15;0.15;;;;;;;;;;5046568;28;20025;-73
2022/10/24 07:55:53;;;;;;;1.85;1.75;;;;;;;;;;5037393;28;20049;-71
2022/10/24 07:58:18;;;;;;;4.10;3.15;;;;;;;;;;5038743;28;20036;-72
2022/10/24 08:00:44;;;;;;;0.80;0.70;;;;;;;;;;5036738;28;20017;-71
2022/10/24 08:03:09;;;;;;;0.30;0.30;;;;;;;;;;5048461;28;20037;-71
2022/10/24 08:05:37;;;;;;;0.43;0.43;;;;;;;;;;5048454;28;20069;-71
2022/10/24 08:08:02;;;;;;;0.45;0.43;;;;;;;;;;5031987;28;20025;-72
2022/10/24 08:10:28;;;;;;;0.13;0.13;;;;;;;;;;5050637;28;20184;-72
2022/10/24 08:12:54;;;;;;;0.30;0.30;;;;;;;;;;5050481;28;20020;-72
2022/10/24 08:15:19;;;;;;;0.20;0.20;;;;;;;;;;5043234;28;20036;-71
2022/10/24 08:17:44;;;;;;;1.85;0.50;;;;;;;;;;5050124;28;20029;-73
2022/10/24 08:20:10;;;;;;;0.30;0.30;;;;;;;;;;5022101;28;20626;-72
2022/10/24 08:22:35;;;;;;;0.25;0.25;;;;;;;;;;5030890;28;20047;-72
2022/10/24 08:25:04;;;;;;;0.30;0.30;;;;;;;;;;5048889;28;20041;-73
2022/10/24 08:27:30;;;;;;;0.30;0.30;;;;;;;;;;5044716;28;20079;-73
2022/10/24 08:29:55;;;;;;;0.20;0.20;;;;;;;;;;5038319;28;20469;-73
2022/10/24 08:32:20;;;;;;;0.20;0.20;;;;;;;;;;5018612;28;20025;-73
2022/10/24 08:34:46;;;;;;;0.20;0.20;;;;;;;;;;5036875;28;20282;-73
2022/10/24 08:37:11;;;;;;;0.30;0.30;;;;;;;;;;5046407;28;20107;-74
2022/10/24 08:39:37;;;;;;;0.20;0.20;;;;;;;;;;5050227;28;20510;-71
2022/10/24 08:42:12;;;;;;;0.20;0.20;;;;;;;;;;5049389;28;20056;-72
2022/10/24 08:44:39;;;;;;;0.68;0.57;;;;;;;;;;5042609;28;20083;-72
2022/10/24 08:47:15;;;;;;;0.50;0.50;;;;;;;;;;5017275;28;20052;-73
2022/10/24 08:49:41;;;;;;;0.30;0.30;;;;;;;;;;5017648;28;20041;-71
2022/10/24 08:52:12;;;;;;;1.05;0.95;;;;;;;;;;5015450;28;20041;-74
2022/10/24 08:54:40;;;;;;;0.32;0.32;;;;;;;;;;5005010;28;20087;-72
2022/10/24 08:57:08;;;;;;;0.63;0.63;;;;;;;;;;5016365;28;20028;-74
2022/10/24 08:59:34;;;;;;;1.63;1.27;;;;;;;;;;4997943;28;20029;-73
2022/10/24 09:02:18;;;;;;;0.30;0.30;;;;;;;;;;5027047;28;20120;-72
2022/10/24 09:05:06;;;;;;;0.35;0.35;;;;;;;;;;5025637;28;20026;-72
2022/10/24 09:07:32;;;;;;;0.20;0.20;;;;;;;;;;5027635;28;20038;-72
2022/10/24 09:10:03;;;;;;;0.28;0.28;;;;;;;;;;5010125;28;20025;-72
2022/10/24 09:12:29;;;;;;;0.20;0.20;;;;;;;;;;5010319;28;20061;-73
2022/10/24 09:14:57;;;;;;;0.20;0.20;;;;;;;;;;5028605;28;20068;-72
2022/10/24 09:17:24;;;;;;;0.20;0.20;;;;;;;;;;5026968;28;20029;-72
2022/10/24 09:19:52;;;;;;;0.15;0.15;;;;;;;;;;5027515;28;20033;-72
2022/10/24 09:22:18;;;;;;;0.70;0.50;;;;;;;;;;5027074;28;20025;-74
2022/10/24 09:24:46;;;;;;;0.20;0.20;;;;;;;;;;5027437;28;20059;-73
2022/10/24 09:27:22;;;;;;;0.30;0.30;;;;;;;;;;5027220;28;20060;-72
2022/10/24 09:29:48;;;;;;;0.20;0.20;;;;;;;;;;5027242;28;20035;-72
2022/10/24 09:32:18;;;;;;;0.40;0.40;;;;;;;;;;5026218;28;20032;-72
2022/10/24 09:34:44;;;;;;;0.10;0.10;;;;;;;;;;5028929;28;20033;-72
2022/10/24 09:37:28;;;;;;;0.22;0.22;;;;;;;;;;5028850;28;20099;-72
2022/10/24 09:40:05;;;;;;;0.30;0.30;;;;;;;;;;5029529;28;20037;-72
2022/10/24 09:42:30;;;;;;;0.73;0.73;;;;;;;;;;5029231;28;20136;-72
2022/10/24 09:44:56;;;;;;;0.60;0.60;;;;;;;;;;5029114;28;20161;-72
2022/10/24 09:47:26;;;;;;;0.20;0.20;;;;;;;;;;5029139;28;20041;-73
2022/10/24 09:49:53;;;;;;;0.25;0.25;;;;;;;;;;5029409;28;20484;-73
2022/10/24 09:52:23;;;;;;;0.77;0.77;;;;;;;;;;5029188;28;20116;-72
2022/10/24 09:55:07;;;;;;;0.40;0.40;;;;;;;;;;5029201;28;20044;-72
2022/10/24 09:57:39;;;;;;;0.20;0.20;;;;;;;;;;5028819;28;20436;-72
2022/10/24 10:00:05;;;;;;;2.03;0.98;;;;;;;;;;5029150;28;20033;-72
2022/10/24 10:02:36;;;;;;;0.20;0.20;;;;;;;;;;5027520;28;20025;-72
2022/10/24 10:05:02;;;;;;;7.13;3.03;;;;;;;;;;5028813;28;20037;-73
2022/10/24 10:07:31;;;;;;;0.20;0.20;;;;;;;;;;5027781;28;20029;-71
2022/10/24 10:10:06;;;;;;;0.20;0.20;;;;;;;;;;5010730;28;20030;-72
2022/10/24 10:12:31;;;;;;;1.45;0.50;;;;;;;;;;5024440;28;20036;-72
2022/10/24 10:14:57;;;;;;;0.20;0.20;;;;;;;;;;5025204;28;20021;-71
2022/10/24 10:17:25;;;;;;;0.30;0.30;;;;;;;;;;5024329;28;20039;-74
2022/10/24 10:19:51;;;;;;;0.45;0.45;;;;;;;;;;5026605;28;20033;-72
2022/10/24 10:22:21;;;;;;;0.30;0.30;;;;;;;;;;5012457;28;20041;-73
2022/10/24 10:24:47;;;;;;;1.10;0.88;;;;;;;;;;5014861;28;20045;-71
2022/10/24 10:27:25;;;;;;;0.40;0.40;;;;;;;;;;5032134;28;20088;-72
2022/10/24 10:30:09;;;;;;;0.30;0.30;;;;;;;;;;5030891;28;20022;-72
2022/10/24 10:32:49;;;;;;;1.55;1.15;;;;;;;;;;5030333;28;20084;-72
2022/10/24 10:35:18;;;;;;;1.02;0.70;;;;;;;;;;5030383;28;20033;-72
2022/10/24 10:37:57;;;;;;;0.38;0.38;;;;;;;;;;5029664;28;20057;-71
2022/10/24 10:40:32;;;;;;;0.30;0.30;;;;;;;;;;5028896;28;20036;-72
2022/10/24 10:42:57;;;;;;;0.35;0.35;;;;;;;;;;5028353;28;20429;-73
2022/10/24 10:45:29;;;;;;;0.35;0.35;;;;;;;;;;5028633;28;20106;-71
2022/10/24 10:48:12;;;;;;;2.85;2.13;;;;;;;;;;5029705;28;20136;-73
2022/10/24 10:50:41;;;;;;;1.48;0.85;;;;;;;;;;5029824;28;20037;-73
2022/10/24 10:53:19;;;;;;;1.55;1.02;;;;;;;;;;5030571;28;20028;-73
2022/10/24 10:55:54;;;;;;;0.47;0.47;;;;;;;;;;5027756;28;20108;-73
2022/10/24 10:58:23;;;;;;;0.32;0.32;;;;;;;;;;5022005;28;20059;-70
2022/10/24 11:01:10;;;;;;;2.72;1.08;;;;;;;;;;5031256;28;20036;-72
2022/10/24 11:03:47;;;;;;;0.90;0.68;;;;;;;;;;5031423;28;20061;-71
2022/10/24 11:06:18;;;;;;;0.22;0.22;;;;;;;;;;5031543;28;20073;-71
2022/10/24 11:08:44;;;;;;;0.20;0.20;;;;;;;;;;5031748;28;20025;-73
2022/10/24 11:11:14;;;;;;;0.38;0.32;;;;;;;;;;5031591;28;20026;-73
2022/10/24 11:13:42;;;;;;;2.30;0.85;;;;;;;;;;5031554;28;20393;-72
2022/10/24 11:16:12;;;;;;;0.20;0.20;;;;;;;;;;5027595;28;20021;-70
2022/10/24 11:18:40;;;;;;;0.95;0.82;;;;;;;;;;5031073;28;20444;-71
2022/10/24 11:21:10;;;;;;;0.47;0.47;;;;;;;;;;5009961;28;20033;-71
2022/10/24 11:23:56;;;;;;;0.55;0.43;;;;;;;;;;5023117;28;20388;-71
2022/10/24 11:26:25;;;;;;;1.60;1.10;;;;;;;;;;5029992;28;20041;-71
2022/10/24 11:29:09;;;;;;;0.45;0.45;;;;;;;;;;5031586;28;20041;-73
2022/10/24 11:31:39;;;;;;;1.90;1.20;;;;;;;;;;5021301;28;20030;-72
2022/10/24 11:34:10;;;;;;;2.83;2.13;;;;;;;;;;5025593;28;20108;-71
2022/10/24 11:36:38;;;;;;;1.23;1.13;;;;;;;;;;5013653;28;20034;-70
2022/10/24 11:39:17;;;;;;;1.70;0.87;;;;;;;;;;5031163;28;20040;-71
2022/10/24 11:41:51;;;;;;;0.60;0.57;;;;;;;;;;5021669;28;20279;-71
2022/10/24 11:44:26;;;;;;;0.20;0.20;;;;;;;;;;5024959;28;20029;-73
2022/10/24 11:46:58;;;;;;;0.50;0.50;;;;;;;;;;5020174;28;20041;-71
2022/10/24 11:49:35;;;;;;;1.23;0.88;;;;;;;;;;5028332;28;20025;-75
2022/10/24 11:52:12;;;;;;;1.55;1.20;;;;;;;;;;5009864;28;20029;-73
2022/10/24 11:54:41;;;;;;;3.90;1.40;;;;;;;;;;5020794;28;20037;-72
2022/10/24 11:57:12;;;;;;;2.25;1.67;;;;;;;;;;5019868;28;20472;-72
2022/10/24 11:59:38;;;;;;;0.13;0.13;;;;;;;;;;5008421;28;20038;-70
2022/10/24 12:02:09;;;;;;;1.25;1.08;;;;;;;;;;5010731;28;20036;-72
2022/10/24 12:04:35;;;;;;;0.32;0.32;;;;;;;;;;5010311;28;20037;-70
2022/10/24 12:07:06;;;;;;;2.05;0.88;;;;;;;;;;5009455;28;20041;-71
2022/10/24 12:09:35;;;;;;;0.45;0.45;;;;;;;;;;5009586;28;20061;-71
2022/10/24 12:12:00;;;;;;;1.00;0.82;;;;;;;;;;5010873;28;20029;-71
2022/10/24 12:14:31;;;;;;;0.38;0.38;;;;;;;;;;5009823;28;20491;-71
2022/10/24 12:17:00;;;;;;;0.50;0.50;;;;;;;;;;5010701;28;20033;-71
2022/10/24 12:19:26;;;;;;;0.38;0.38;;;;;;;;;;5013585;28;20392;-72
2022/10/24 12:21:56;;;;;;;0.30;0.30;;;;;;;;;;5029986;28;20033;-71
2022/10/24 12:24:21;;;;;;;0.28;0.28;;;;;;;;;;5029489;28;20033;-71
2022/10/24 12:26:54;;;;;;;0.60;0.60;;;;;;;;;;5028221;28;20032;-72
2022/10/24 12:29:22;;;;;;;0.60;0.60;;;;;;;;;;5027449;28;20033;-71
2022/10/24 12:31:49;;;;;;;1.10;0.50;;;;;;;;;;5014236;28;20036;-73
2022/10/24 12:34:14;;;;;;;0.30;0.30;;;;;;;;;;5023301;28;20469;-71
2022/10/24 12:36:58;;;;;;;0.30;0.30;;;;;;;;;;5012322;28;20025;-71
2022/10/24 12:39:28;;;;;;;1.08;0.98;;;;;;;;;;5010286;28;20026;-71
2022/10/24 12:41:54;;;;;;;1.17;1.15;;;;;;;;;;5029288;28;20041;-71
2022/10/24 12:44:32;;;;;;;0.20;0.20;;;;;;;;;;5026285;28;20033;-72
2022/10/24 12:46:58;;;;;;;3.95;2.22;;;;;;;;;;5027684;28;20366;-71
2022/10/24 12:49:27;;;;;;;1.55;0.75;;;;;;;;;;5027658;28;20080;-71
2022/10/24 12:51:53;;;;;;;0.30;0.30;;;;;;;;;;5027686;28;20115;-72
2022/10/24 12:54:38;;;;;;;0.30;0.30;;;;;;;;;;5027693;28;20057;-71
2022/10/24 12:57:03;;;;;;;0.40;0.40;;;;;;;;;;5027847;28;20350;-72
2022/10/24 12:59:32;;;;;;;0.43;0.43;;;;;;;;;;5027696;28;20033;-71
2022/10/24 13:01:57;;;;;;;;;;;;;;;;;;5029611;28;20029;-71
2022/10/24 13:04:32;;;;;;;0.20;0.20;;;;;;;;;;5037585;28;19919;-70
2022/10/24 13:07:17;;;;;;;0.20;0.20;;;;;;;;;;5035638;28;20290;-70
2022/10/24 13:09:42;;;;;;;0.20;0.20;;;;;;;;;;5032309;28;20480;-71
2022/10/24 13:12:10;;;;;;;0.20;0.20;;;;;;;;;;5029241;28;20025;-71
2022/10/24 13:14:36;;;;;;;2.95;2.67;;;;;;;;;;5011997;28;20138;-70
2022/10/24 13:17:12;;;;;;;0.65;0.65;;;;;;;;;;5011594;28;20632;-70
2022/10/24 13:19:38;;;;;;;1.00;0.77;;;;;;;;;;5029333;28;20021;-71
2022/10/24 13:22:03;;;;;;;0.20;0.20;;;;;;;;;;5029284;28;20025;-71
2022/10/24 13:24:39;;;;;;;0.52;0.52;;;;;;;;;;5029630;28;20061;-71
2022/10/24 13:27:04;;;;;;;0.80;0.80;;;;;;;;;;5029301;28;20038;-71
2022/10/24 13:29:30;;;;;;;0.60;0.60;;;;;;;;;;5029028;28;20033;-71
2022/10/24 13:32:04;;;;;;;0.70;0.70;;;;;;;;;;5029437;28;20029;-71
2022/10/24 13:34:48;;;;;;;0.82;0.45;;;;;;;;;;5028895;28;20563;-71
2022/10/24 13:37:32;;;;;;;0.45;0.38;;;;;;;;;;5028921;28;20057;-70
2022/10/24 13:40:00;;;;;;;0.20;0.20;;;;;;;;;;5029800;28;20542;-73
2022/10/24 13:42:26;;;;;;;0.88;0.88;;;;;;;;;;5029033;28;20045;-71
2022/10/24 13:44:55;;;;;;;1.08;1.00;;;;;;;;;;5028953;28;20060;-72
2022/10/24 13:47:35;;;;;;;8.27;0.77;;;;;;;;;;5029042;28;20034;-72
2022/10/24 13:50:19;;;;;;;1.38;1.20;;;;;;;;;;5019111;28;20415;-71
2022/10/24 13:52:46;;;;;;;1.40;1.13;;;;;;;;;;5018746;28;20034;-71
2022/10/24 13:55:14;;;;;;;0.43;0.43;;;;;;;;;;5026215;28;20022;-72
2022/10/24 13:57:51;;;;;;;3.40;2.13;;;;;;;;;;5025714;28;20488;-72
2022/10/24 14:00:37;;;;;;;0.30;0.30;;;;;;;;;;5030658;28;20036;-73
2022/10/24 14:03:03;;;;;;;0.85;0.50;;;;;;;;;;5017296;28;20129;-72
2022/10/24 14:05:29;;;;;;;5.95;4.65;;;;;;;;;;5028346;28;20041;-72
2022/10/24 14:07:55;;;;;;;1.50;0.95;;;;;;;;;;5009044;28;20457;-72
2022/10/24 14:10:20;;;;;;;2.10;1.02;;;;;;;;;;5010979;28;20096;-72
2022/10/24 14:12:50;;;;;;;6.93;1.55;;;;;;;;;;5010915;28;20029;-72
2022/10/24 14:15:21;;;;;;;2.47;1.63;;;;;;;;;;5013530;28;20037;-72
2022/10/24 14:18:03;;;;;;;0.43;0.35;;;;;;;;;;4993079;28;20026;-73
2022/10/24 14:20:30;;;;;;;0.10;0.10;;;;;;;;;;5015837;28;20472;-72
2022/10/24 14:22:55;;;;;;;1.33;0.65;;;;;;;;;;5000685;28;20022;-72
2022/10/24 14:25:22;;;;;;;0.32;0.30;;;;;;;;;;5004057;28;20448;-73
2022/10/24 14:27:48;;;;;;;1.25;0.68;;;;;;;;;;5025422;28;20059;-72
2022/10/24 14:30:18;;;;;;;0.85;0.57;;;;;;;;;;5030467;28;20433;-72
2022/10/24 14:32:43;;;;;;;0.20;0.20;;;;;;;;;;5032725;28;20075;-72
2022/10/24 14:35:12;;;;;;;0.98;0.65;;;;;;;;;;5032206;28;20029;-71
2022/10/24 14:37:39;;;;;;;0.55;0.52;;;;;;;;;;5032108;28;20025;-70
2022/10/24 14:40:05;;;;;;;0.43;0.43;;;;;;;;;;5031982;28;20401;-72
2022/10/24 14:42:31;;;;;;;0.50;0.50;;;;;;;;;;5031374;28;20056;-71
2022/10/24 14:44:56;;;;;;;1.95;1.42;;;;;;;;;;5014326;28;20389;-72
2022/10/24 14:47:29;;;;;;;0.57;0.57;;;;;;;;;;5023066;28;20041;-70
2022/10/24 14:49:58;;;;;;;1.67;1.17;;;;;;;;;;5026342;28;20037;-71